createdAt,value
2023-05-10T00:03:34.216Z,25.40
2023-05-10T00:08:39.496Z,25.50
2023-05-10T00:13:44.552Z,25.70
2023-05-10T00:18:50.166Z,25.90
2023-05-10T00:23:55.321Z,26.00
2023-05-10T00:29:00.953Z,25.90
2023-05-10T00:34:06.526Z,26.00
2023-05-10T00:39:12.068Z,25.90
2023-05-10T00:44:17.470Z,26.00
2023-05-10T00:49:23.584Z,26.00
2023-05-10T00:54:28.710Z,26.00
2023-05-10T00:59:34.585Z,26.00
2023-05-10T01:04:39.814Z,26.00
2023-05-10T01:09:45.508Z,26.10
2023-05-10T01:14:51.942Z,26.20
2023-05-10T01:19:57.404Z,26.30
2023-05-10T01:25:39.667Z,26.30
2023-05-10T01:31:06.990Z,26.40
2023-05-10T01:36:33.755Z,26.30
2023-05-10T01:42:14.295Z,26.10
2023-05-10T01:47:31.229Z,25.90
2023-05-10T01:52:47.107Z,25.70
2023-05-10T01:58:00.196Z,25.60
2023-05-10T02:03:10.318Z,25.60
2023-05-10T02:08:19.987Z,26.00
2023-05-10T02:13:28.799Z,26.50
2023-05-10T02:18:36.553Z,26.60
2023-05-10T02:23:42.702Z,26.20
2023-05-10T02:28:48.701Z,26.20
2023-05-10T02:33:55.912Z,26.50
2023-05-10T02:39:04.236Z,27.10
2023-05-10T02:44:11.537Z,27.10
2023-05-10T02:49:17.513Z,27.20
2023-05-10T02:54:27.270Z,27.80
2023-05-10T02:59:32.588Z,28.80
2023-05-10T03:04:38.145Z,29.30
2023-05-10T03:09:44.486Z,29.00
2023-05-10T03:14:56.643Z,29.00
2023-05-10T03:20:12.510Z,29.30
2023-05-10T03:25:19.677Z,29.50
2023-05-10T03:30:25.526Z,29.50
2023-05-10T03:35:30.853Z,29.10
2023-05-10T03:40:36.943Z,28.80
2023-05-10T03:45:42.739Z,28.90
2023-05-10T03:50:48.221Z,29.40
2023-05-10T03:55:54.260Z,30.40
2023-05-10T04:00:59.561Z,31.30
2023-05-10T04:06:05.893Z,32.00
2023-05-10T04:11:12.646Z,32.10
2023-05-10T04:16:18.148Z,31.90
2023-05-10T04:21:23.939Z,31.80
2023-05-10T04:26:29.491Z,32.00
2023-05-10T04:31:36.686Z,32.80
2023-05-10T04:36:42.078Z,33.20
2023-05-10T04:41:47.786Z,32.40
2023-05-10T04:46:53.572Z,31.80
2023-05-10T04:51:59.324Z,32.30
2023-05-10T04:57:03.874Z,32.80
2023-05-10T05:02:09.265Z,32.10
2023-05-10T05:07:14.969Z,32.00
2023-05-10T05:12:19.733Z,31.70
2023-05-10T05:17:25.163Z,32.30
2023-05-10T05:22:30.746Z,32.00
2023-05-10T05:27:36.223Z,31.70
2023-05-10T05:32:42.085Z,31.80
2023-05-10T05:37:47.576Z,33.00
2023-05-10T05:42:53.111Z,34.00
2023-05-10T05:47:58.714Z,33.60
2023-05-10T05:53:05.277Z,32.40
2023-05-10T05:58:10.517Z,31.30
2023-05-10T06:03:16.380Z,30.60
2023-05-10T06:08:22.725Z,30.40
2023-05-10T06:13:31.415Z,30.50
2023-05-10T06:18:40.681Z,31.00
2023-05-10T06:23:46.442Z,31.50
2023-05-10T06:28:51.850Z,32.10
2023-05-10T06:33:57.523Z,32.40
2023-05-10T06:39:06.305Z,32.70
2023-05-10T06:44:11.317Z,33.00
2023-05-10T06:49:16.794Z,33.50
2023-05-10T06:54:21.935Z,33.80
2023-05-10T06:59:27.113Z,33.50
2023-05-10T07:04:32.503Z,34.00
2023-05-10T07:09:38.139Z,34.00
2023-05-10T07:14:43.651Z,33.80
2023-05-10T07:19:48.469Z,33.90
2023-05-10T07:24:54.091Z,34.40
2023-05-10T07:29:59.371Z,35.30
2023-05-10T07:35:05.708Z,34.70
2023-05-10T07:40:11.821Z,34.20
2023-05-10T07:45:17.186Z,34.60
2023-05-10T07:50:23.602Z,34.90
2023-05-10T07:55:29.175Z,34.80
2023-05-10T08:00:34.424Z,34.60
2023-05-10T08:05:40.034Z,34.20
2023-05-10T08:10:45.684Z,33.60
2023-05-10T08:15:50.771Z,32.50
2023-05-10T08:20:56.736Z,31.50
2023-05-10T08:26:03.151Z,30.90
2023-05-10T08:31:08.769Z,30.40
2023-05-10T08:36:17.521Z,30.20
2023-05-10T08:41:28.208Z,30.00
2023-05-10T08:46:37.913Z,29.70
2023-05-10T08:51:53.765Z,29.50
2023-05-10T08:57:02.769Z,29.30
2023-05-10T09:02:08.670Z,29.30
2023-05-10T09:07:14.958Z,29.20
2023-05-10T09:12:20.835Z,29.20
2023-05-10T09:17:44.479Z,29.20
2023-05-10T09:22:49.990Z,29.10
2023-05-10T09:27:55.869Z,29.10
2023-05-10T09:33:06.153Z,29.10
2023-05-10T09:38:12.792Z,29.10
2023-05-10T09:43:22.133Z,29.10
2023-05-10T09:48:37.857Z,29.10
2023-05-10T09:53:44.120Z,29.00
2023-05-10T09:59:04.576Z,28.90
2023-05-10T10:04:12.518Z,28.80
2023-05-10T10:09:18.058Z,28.70
2023-05-10T10:14:25.303Z,28.70
2023-05-10T10:19:33.419Z,28.60
2023-05-10T10:24:45.806Z,28.60
2023-05-10T10:30:09.465Z,28.50
2023-05-10T10:35:51.741Z,28.40
2023-05-10T10:41:49.705Z,28.40
2023-05-10T10:47:31.443Z,28.30
2023-05-10T10:52:39.374Z,28.30
2023-05-10T10:57:51.024Z,28.20
2023-05-10T11:03:05.491Z,28.20
2023-05-10T11:08:38.206Z,28.10
2023-05-10T11:13:52.258Z,28.00
2023-05-10T11:19:00.850Z,28.00
2023-05-10T11:24:17.624Z,28.00
2023-05-10T11:29:23.507Z,27.90
2023-05-10T11:34:32.816Z,27.90
2023-05-10T11:39:48.029Z,28.00
2023-05-10T11:44:53.499Z,27.90
2023-05-10T11:50:00.082Z,27.80
2023-05-10T11:55:06.184Z,27.80
2023-05-10T12:00:27.795Z,27.80
2023-05-10T12:05:36.596Z,27.70
2023-05-10T12:10:42.312Z,27.70
2023-05-10T12:15:47.520Z,27.70
2023-05-10T12:21:05.901Z,27.60
2023-05-10T12:26:17.850Z,27.60
2023-05-10T12:31:23.939Z,27.60
2023-05-10T12:36:29.606Z,27.60
2023-05-10T12:41:34.382Z,27.50
2023-05-10T12:46:39.821Z,27.40
2023-05-10T12:51:45.457Z,27.40
2023-05-10T12:56:57.255Z,27.40
2023-05-10T13:02:03.098Z,27.40
2023-05-10T13:07:09.039Z,27.30
2023-05-10T13:12:14.591Z,27.30
2023-05-10T13:17:20.173Z,27.30
2023-05-10T13:22:36.417Z,27.20
2023-05-10T13:27:45.318Z,27.30
2023-05-10T13:32:50.531Z,27.30
2023-05-10T13:37:55.990Z,27.20
2023-05-10T13:43:01.949Z,27.20
2023-05-10T13:48:09.303Z,27.20
2023-05-10T13:53:18.268Z,27.20
2023-05-10T13:58:24.464Z,27.20
2023-05-10T14:03:30.300Z,27.20
2023-05-10T14:08:37.482Z,27.10
2023-05-10T14:13:43.466Z,27.10
2023-05-10T14:18:49.548Z,27.10
2023-05-10T14:24:09.674Z,27.00
2023-05-10T14:29:15.727Z,27.00
2023-05-10T14:34:22.419Z,27.10
2023-05-10T14:39:28.196Z,27.00
2023-05-10T14:44:33.013Z,27.00
2023-05-10T14:49:39.165Z,27.00
2023-05-10T14:54:45.042Z,27.00
2023-05-10T14:59:50.989Z,26.90
2023-05-10T15:04:57.200Z,26.90
2023-05-10T15:10:06.719Z,26.90
2023-05-10T15:15:12.310Z,26.80
2023-05-10T15:20:18.191Z,26.80
2023-05-10T15:25:26.824Z,26.80
2023-05-10T15:30:33.376Z,26.80
2023-05-10T15:35:40.775Z,26.80
2023-05-10T15:40:45.995Z,26.80
2023-05-10T15:45:51.759Z,26.80
2023-05-10T15:50:56.637Z,26.70
2023-05-10T15:56:02.164Z,26.70
2023-05-10T16:01:08.518Z,26.70
2023-05-10T16:06:15.099Z,26.70
2023-05-10T16:11:20.638Z,26.70
2023-05-10T16:16:35.818Z,26.70
2023-05-10T16:21:44.911Z,26.80
2023-05-10T16:26:50.310Z,26.70
2023-05-10T16:31:57.155Z,26.70
2023-05-10T16:37:05.098Z,26.70
2023-05-10T16:42:16.714Z,26.70
2023-05-10T16:47:28.366Z,26.70
2023-05-10T16:52:34.654Z,26.60
2023-05-10T16:57:39.921Z,26.60
2023-05-10T17:02:46.757Z,26.60
2023-05-10T17:07:52.052Z,26.60
2023-05-10T17:12:58.156Z,26.50
2023-05-10T17:18:03.692Z,26.50
2023-05-10T17:23:09.285Z,26.50
2023-05-10T17:28:14.530Z,26.60
2023-05-10T17:33:20.319Z,26.50
2023-05-10T17:38:26.145Z,26.50
2023-05-10T17:43:31.652Z,26.50
2023-05-10T17:48:38.445Z,26.50
2023-05-10T17:53:47.415Z,26.50
2023-05-10T17:58:52.916Z,26.50
2023-05-10T18:03:58.903Z,26.50
2023-05-10T18:09:05.697Z,26.50
2023-05-10T18:14:10.912Z,26.50
2023-05-10T18:19:16.721Z,26.50
2023-05-10T18:24:37.555Z,26.50
2023-05-10T18:29:45.841Z,26.50
2023-05-10T18:34:51.078Z,26.50
2023-05-10T18:39:56.720Z,26.50
2023-05-10T18:45:02.015Z,26.50
2023-05-10T18:50:08.182Z,26.50
2023-05-10T18:55:13.784Z,26.40
2023-05-10T19:00:21.769Z,26.40
2023-05-10T19:05:31.365Z,26.30
2023-05-10T19:10:36.915Z,26.30
2023-05-10T19:15:42.976Z,26.30
2023-05-10T19:20:48.763Z,26.30
2023-05-10T19:25:53.757Z,26.40
2023-05-10T19:30:59.659Z,26.40
2023-05-10T19:36:05.920Z,26.40
2023-05-10T19:41:12.729Z,26.40
2023-05-10T19:46:20.164Z,26.40
2023-05-10T19:51:35.793Z,26.40
2023-05-10T19:56:47.308Z,26.30
2023-05-10T20:01:52.783Z,26.30
2023-05-10T20:06:58.279Z,26.40
2023-05-10T20:12:03.855Z,26.40
2023-05-10T20:17:08.732Z,26.40
2023-05-10T20:22:14.207Z,26.40
2023-05-10T20:27:19.719Z,26.40
2023-05-10T20:32:25.519Z,26.40
2023-05-10T20:37:31.361Z,26.40
2023-05-10T20:42:36.946Z,26.40
2023-05-10T20:47:41.931Z,26.50
2023-05-10T20:52:47.548Z,26.50
2023-05-10T20:57:54.290Z,26.40
2023-05-10T21:02:59.568Z,26.30
2023-05-10T21:08:05.289Z,26.20
2023-05-10T21:13:11.177Z,26.10
2023-05-10T21:18:17.060Z,26.10
2023-05-10T21:23:21.824Z,26.00
2023-05-10T21:28:27.184Z,25.90
2023-05-10T21:33:32.493Z,25.90
2023-05-10T21:38:37.619Z,25.90
2023-05-10T21:43:42.755Z,26.10
2023-05-10T21:48:48.143Z,26.30
2023-05-10T21:53:54.335Z,26.20
2023-05-10T21:58:59.792Z,26.10
2023-05-10T22:04:05.348Z,25.90
2023-05-10T22:09:11.627Z,25.70
2023-05-10T22:14:17.111Z,25.60
2023-05-10T22:19:22.896Z,25.60
2023-05-10T22:24:28.574Z,25.60
2023-05-10T22:29:33.562Z,25.60
2023-05-10T22:34:39.106Z,25.60
2023-05-10T22:39:44.577Z,25.60
2023-05-10T22:44:49.766Z,25.50
2023-05-10T22:49:56.714Z,25.60
2023-05-10T22:55:01.850Z,25.70
2023-05-10T23:00:08.363Z,25.70
2023-05-10T23:05:14.553Z,25.90
2023-05-10T23:10:20.098Z,25.90
2023-05-10T23:15:25.712Z,26.00
2023-05-10T23:20:31.565Z,26.10
2023-05-10T23:25:39.044Z,26.10
2023-05-10T23:30:44.484Z,26.10
2023-05-10T23:35:49.693Z,26.20
2023-05-10T23:40:55.845Z,26.50
2023-05-10T23:46:01.650Z,26.70
2023-05-10T23:51:07.424Z,27.00
2023-05-10T23:56:13.366Z,27.20
